createdAt,value
2018-03-24T00:01:08.005Z,100214.03
2018-03-24T00:03:34.261Z,100211.88
2018-03-24T00:06:00.530Z,100208.43
2018-03-24T00:08:26.898Z,100211.89
2018-03-24T00:10:52.910Z,100216.64
2018-03-24T00:13:18.809Z,100217.08
2018-03-24T00:15:47.389Z,100209.30
2018-03-24T00:18:13.248Z,100214.94
2018-03-24T00:20:39.268Z,100213.63
2018-03-24T00:23:05.142Z,100214.08
2018-03-24T00:25:31.001Z,100210.61
2018-03-24T00:27:56.920Z,100207.64
2018-03-24T00:30:22.768Z,100207.16
2018-03-24T00:32:48.617Z,100211.05
2018-03-24T00:35:14.526Z,100213.66
2018-03-24T00:37:40.413Z,100210.64
2018-03-24T00:40:06.276Z,100210.19
2018-03-24T00:42:32.172Z,100209.78
2018-03-24T00:44:58.020Z,100211.05
2018-03-24T00:47:23.872Z,100207.14
2018-03-24T00:49:49.768Z,100211.50
2018-03-24T00:52:15.626Z,100214.94
2018-03-24T00:54:41.468Z,100207.17
2018-03-24T00:57:07.377Z,100214.55
2018-03-24T00:59:33.227Z,100213.67
2018-03-24T01:01:59.081Z,100214.52
2018-03-24T01:04:25.305Z,100204.61
2018-03-24T01:06:51.193Z,100203.29
2018-03-24T01:09:17.146Z,100202.87
2018-03-24T01:11:43.032Z,100198.09
2018-03-24T01:14:08.889Z,100199.38
2018-03-24T01:16:34.750Z,100189.00
2018-03-24T01:19:00.733Z,100186.42
2018-03-24T01:21:26.688Z,100188.59
2018-03-24T01:23:52.527Z,100192.44
2018-03-24T01:26:18.422Z,100190.70
2018-03-24T01:28:44.277Z,100182.94
2018-03-24T01:31:10.206Z,100185.11
2018-03-24T01:33:36.404Z,100191.56
2018-03-24T01:36:02.272Z,100183.36
2018-03-24T01:38:28.221Z,100184.64
2018-03-24T01:40:54.126Z,100182.08
2018-03-24T01:43:20.048Z,100179.05
2018-03-24T01:45:45.892Z,100179.45
2018-03-24T01:48:11.800Z,100171.69
2018-03-24T01:50:37.658Z,100172.11
2018-03-24T01:53:03.516Z,100169.98
2018-03-24T01:55:29.504Z,100171.67
2018-03-24T01:57:55.356Z,100164.34
2018-03-24T02:00:21.223Z,100165.22
2018-03-24T02:02:47.910Z,100166.51
2018-03-24T02:05:13.794Z,100159.20
2018-03-24T02:07:39.721Z,100161.78
2018-03-24T02:10:05.626Z,100155.28
2018-03-24T02:12:31.483Z,100154.88
2018-03-24T02:14:57.329Z,100158.72
2018-03-24T02:17:23.306Z,100157.45
2018-03-24T02:19:49.260Z,100150.12
2018-03-24T02:22:15.104Z,100145.33
2018-03-24T02:24:42.480Z,100145.79
2018-03-24T02:27:08.544Z,100154.01
2018-03-24T02:29:34.393Z,100144.02
2018-03-24T02:32:00.429Z,100152.20
2018-03-24T02:34:26.302Z,100150.92
2018-03-24T02:36:52.168Z,100146.61
2018-03-24T02:39:18.225Z,100144.00
2018-03-24T02:41:44.086Z,100141.83
2018-03-24T02:44:10.035Z,100135.76
2018-03-24T02:46:36.026Z,100136.61
2018-03-24T02:49:01.889Z,100130.59
2018-03-24T02:51:27.741Z,100132.30
2018-03-24T02:53:53.625Z,100135.77
2018-03-24T02:56:19.536Z,100137.93
2018-03-24T02:58:45.391Z,100136.20
2018-03-24T03:01:11.322Z,100140.52
2018-03-24T03:03:37.190Z,100135.75
2018-03-24T03:06:03.084Z,100135.30
2018-03-24T03:08:29.082Z,100126.67
2018-03-24T03:10:54.940Z,100139.19
2018-03-24T03:13:20.807Z,100124.52
2018-03-24T03:15:46.726Z,100134.44
2018-03-24T03:18:12.585Z,100127.53
2018-03-24T03:20:38.537Z,100127.52
2018-03-24T03:23:04.430Z,100131.40
2018-03-24T03:25:30.280Z,100135.74
2018-03-24T03:27:56.190Z,100142.21
2018-03-24T03:30:28.283Z,100134.84
2018-03-24T03:32:54.270Z,100139.18
2018-03-24T03:35:20.138Z,100143.06
2018-03-24T03:37:46.035Z,100142.22
2018-03-24T03:40:11.901Z,100142.21
2018-03-24T03:42:37.748Z,100146.53
2018-03-24T03:45:03.781Z,100139.64
2018-03-24T03:47:29.653Z,100136.18
2018-03-24T03:49:55.509Z,100141.33
2018-03-24T03:52:21.387Z,100138.75
2018-03-24T03:54:47.244Z,100137.04
2018-03-24T03:57:13.180Z,100139.65
2018-03-24T03:59:39.072Z,100144.39
2018-03-24T04:02:04.928Z,100139.20
2018-03-24T04:04:30.845Z,100140.95
2018-03-24T04:06:56.732Z,100146.09
2018-03-24T04:09:22.689Z,100147.43
2018-03-24T04:11:48.543Z,100138.74
2018-03-24T04:14:14.814Z,100135.77
2018-03-24T04:16:40.732Z,100136.59
2018-03-24T04:19:06.589Z,100139.20
2018-03-24T04:21:32.579Z,100141.38
2018-03-24T04:23:58.441Z,100141.77
2018-03-24T04:26:24.301Z,100148.27
2018-03-24T04:28:50.200Z,100136.61
2018-03-24T04:31:16.120Z,100136.60
2018-03-24T04:33:42.068Z,100139.63
2018-03-24T04:36:07.958Z,100144.37
2018-03-24T04:38:33.816Z,100141.80
2018-03-24T04:40:59.677Z,100135.72
2018-03-24T04:43:25.920Z,100135.73
2018-03-24T04:45:51.862Z,100133.16
2018-03-24T04:48:17.717Z,100144.38
2018-03-24T04:50:43.602Z,100144.79
2018-03-24T04:53:09.471Z,100146.53
2018-03-24T04:55:35.321Z,100149.59
2018-03-24T04:58:01.310Z,100146.11
2018-03-24T05:00:27.903Z,100153.04
2018-03-24T05:02:53.770Z,100148.30
2018-03-24T05:05:19.697Z,100153.92
2018-03-24T05:07:45.603Z,100151.74
2018-03-24T05:10:11.552Z,100151.31
2018-03-24T05:12:37.543Z,100156.50
2018-03-24T05:15:03.418Z,100156.50
2018-03-24T05:17:29.273Z,100162.56
2018-03-24T05:19:55.213Z,100155.19
2018-03-24T05:22:21.157Z,100156.09
2018-03-24T05:24:47.057Z,100155.23
2018-03-24T05:27:13.328Z,100164.33
2018-03-24T05:29:39.198Z,100162.61
2018-03-24T05:32:05.114Z,100162.61
2018-03-24T05:34:31.154Z,100167.36
2018-03-24T05:36:57.012Z,100160.87
2018-03-24T05:39:22.866Z,100166.49
2018-03-24T05:41:48.770Z,100169.08
2018-03-24T05:44:14.685Z,100170.80
2018-03-24T05:46:40.620Z,100164.78
2018-03-24T05:49:06.504Z,100169.53
2018-03-24T05:51:32.360Z,100171.28
2018-03-24T05:53:58.208Z,100173.42
2018-03-24T05:56:24.162Z,100178.60
2018-03-24T05:58:50.097Z,100180.78
2018-03-24T06:01:15.953Z,100181.69
2018-03-24T06:03:41.857Z,100183.83
2018-03-24T06:06:07.805Z,100183.82
2018-03-24T06:08:33.745Z,100192.50
2018-03-24T06:10:59.716Z,100192.07
2018-03-24T06:13:25.631Z,100193.78
2018-03-24T06:15:51.482Z,100202.89
2018-03-24T06:18:17.378Z,100201.16
2018-03-24T06:20:43.241Z,100198.99
2018-03-24T06:23:09.137Z,100201.59
2018-03-24T06:25:35.049Z,100197.30
2018-03-24T06:28:00.921Z,100205.49
2018-03-24T06:30:26.790Z,100198.15
2018-03-24T06:32:52.705Z,100201.20
2018-03-24T06:35:18.578Z,100202.48
2018-03-24T06:37:44.427Z,100202.91
2018-03-24T06:40:10.421Z,100198.17
2018-03-24T06:42:36.286Z,100205.95
2018-03-24T06:45:02.152Z,100202.50
2018-03-24T06:47:28.058Z,100209.86
2018-03-24T06:49:53.968Z,100212.00
2018-03-24T06:52:19.830Z,100215.02
2018-03-24T06:54:45.715Z,100215.91
2018-03-24T06:57:11.564Z,100210.72
2018-03-24T06:59:37.418Z,100214.16
2018-03-24T07:02:03.392Z,100216.33
2018-03-24T07:04:29.247Z,100216.78
2018-03-24T07:06:55.125Z,100215.91
2018-03-24T07:09:21.021Z,100224.55
2018-03-24T07:11:46.933Z,100224.13
2018-03-24T07:14:12.811Z,100228.88
2018-03-24T07:16:38.721Z,100231.48
2018-03-24T07:19:04.589Z,100231.04
2018-03-24T07:21:30.440Z,100230.61
2018-03-24T07:23:56.346Z,100228.88
2018-03-24T07:26:22.201Z,100233.23
2018-03-24T07:28:48.049Z,100237.12
2018-03-24T07:31:13.965Z,100240.13
2018-03-24T07:33:39.830Z,100239.25
2018-03-24T07:36:05.703Z,100241.84
2018-03-24T07:38:31.608Z,100241.86
2018-03-24T07:40:57.465Z,100238.80
2018-03-24T07:43:23.309Z,100240.09
2018-03-24T07:45:49.197Z,100242.26
2018-03-24T07:48:15.161Z,100249.14
2018-03-24T07:50:41.044Z,100246.98
2018-03-24T07:53:06.947Z,100247.41
2018-03-24T07:55:32.810Z,100250.87
2018-03-24T07:57:58.660Z,100249.12
2018-03-24T08:00:24.560Z,100252.12
2018-03-24T08:02:50.420Z,100256.54
2018-03-24T08:05:16.277Z,100255.22
2018-03-24T08:07:42.174Z,100260.42
2018-03-24T08:10:08.090Z,100262.56
2018-03-24T08:12:33.996Z,100261.63
2018-03-24T08:14:59.912Z,100259.03
2018-03-24T08:17:25.808Z,100264.66
2018-03-24T08:19:51.742Z,100255.96
2018-03-24T08:22:17.735Z,100267.59
2018-03-24T08:24:43.602Z,100259.26
2018-03-24T08:27:09.577Z,100267.89
2018-03-24T08:29:35.573Z,100264.05
2018-03-24T08:32:01.605Z,100271.41
2018-03-24T08:34:27.504Z,100278.36
2018-03-24T08:36:53.441Z,100274.79
2018-03-24T08:39:19.317Z,100279.61
2018-03-24T08:41:45.160Z,100282.65
2018-03-24T08:44:11.045Z,100278.74
2018-03-24T08:46:36.894Z,100277.48
2018-03-24T08:49:02.750Z,100285.69
2018-03-24T08:51:28.650Z,100286.60
2018-03-24T08:53:54.609Z,100278.31
2018-03-24T08:56:20.477Z,100291.71
2018-03-24T08:58:46.385Z,100280.76
2018-03-24T09:01:12.236Z,100286.77
2018-03-24T09:03:38.096Z,100287.22
2018-03-24T09:06:03.989Z,100291.41
2018-03-24T09:08:29.840Z,100290.19
2018-03-24T09:10:55.689Z,100291.84
2018-03-24T09:13:21.717Z,100283.95
2018-03-24T09:15:47.582Z,100287.28
2018-03-24T09:18:13.461Z,100285.70
2018-03-24T09:20:39.373Z,100279.55
2018-03-24T09:23:05.228Z,100284.11
2018-03-24T09:25:31.098Z,100282.44
2018-03-24T09:27:57.039Z,100284.89
2018-03-24T09:30:22.942Z,100278.90
2018-03-24T09:32:48.810Z,100279.83
2018-03-24T09:35:14.698Z,100281.64
2018-03-24T09:37:40.557Z,100275.30
2018-03-24T09:40:06.417Z,100276.62
2018-03-24T09:42:32.334Z,100279.30
2018-03-24T09:44:58.185Z,100279.58
2018-03-24T09:47:24.077Z,100275.06
2018-03-24T09:49:49.960Z,100274.63
2018-03-24T09:52:15.843Z,100278.93
2018-03-24T09:54:41.740Z,100276.50
2018-03-24T09:57:07.629Z,100268.43
2018-03-24T09:59:33.481Z,100275.88
2018-03-24T10:01:59.326Z,100274.42
2018-03-24T10:04:25.218Z,100270.07
2018-03-24T10:06:51.078Z,100274.00
2018-03-24T10:09:16.942Z,100270.25
2018-03-24T10:11:42.854Z,100271.48
2018-03-24T10:14:09.629Z,100263.66
2018-03-24T10:16:35.481Z,100263.63
2018-03-24T10:19:01.542Z,100263.69
2018-03-24T10:24:32.426Z,100270.97
2018-03-24T10:26:58.286Z,100259.69
2018-03-24T10:29:24.132Z,100271.45
2018-03-24T10:31:50.021Z,100264.27
2018-03-24T10:34:15.874Z,100270.02
2018-03-24T10:36:41.753Z,100270.33
2018-03-24T10:39:07.633Z,100261.17
2018-03-24T10:41:33.493Z,100263.51
2018-03-24T10:43:59.353Z,100268.81
2018-03-24T10:46:25.252Z,100263.48
2018-03-24T10:48:51.121Z,100261.64
2018-03-24T10:51:17.006Z,100257.52
2018-03-24T10:53:42.934Z,100261.59
2018-03-24T10:56:08.816Z,100254.64
2018-03-24T10:58:34.781Z,100257.91
2018-03-24T11:01:02.765Z,100257.52
2018-03-24T11:03:28.616Z,100265.24
2018-03-24T11:05:54.497Z,100258.73
2018-03-24T11:08:20.415Z,100265.61
2018-03-24T11:10:46.269Z,100269.92
2018-03-24T11:13:12.111Z,100256.12
2018-03-24T11:15:38.053Z,100264.45
2018-03-24T11:18:03.917Z,100252.80
2018-03-24T11:20:29.766Z,100255.15
2018-03-24T11:22:55.658Z,100245.41
2018-03-24T11:25:21.504Z,100255.57
2018-03-24T11:27:47.405Z,100253.63
2018-03-24T11:30:13.304Z,100246.62
2018-03-24T11:32:39.160Z,100244.85
2018-03-24T11:35:05.028Z,100245.46
2018-03-24T11:37:30.920Z,100256.07
2018-03-24T11:39:56.764Z,100252.98
2018-03-24T11:42:22.698Z,100256.38
2018-03-24T11:44:48.597Z,100259.05
2018-03-24T11:47:14.461Z,100260.04
2018-03-24T11:49:40.305Z,100260.83
2018-03-24T11:52:06.202Z,100255.91
2018-03-24T11:54:42.268Z,100256.63
2018-03-24T11:57:08.174Z,100257.30
2018-03-24T11:59:34.024Z,100260.77
2018-03-24T12:01:59.876Z,100262.86
2018-03-24T12:04:25.766Z,100255.22
2018-03-24T12:06:51.619Z,100245.52
2018-03-24T12:09:17.456Z,100239.40
2018-03-24T12:11:43.357Z,100234.84
2018-03-24T12:14:09.213Z,100240.18
2018-03-24T12:16:35.110Z,100235.41
2018-03-24T12:19:01.003Z,100235.62
2018-03-24T12:21:26.875Z,100236.06
2018-03-24T12:23:52.740Z,100235.42
2018-03-24T12:26:18.628Z,100233.34
2018-03-24T12:28:44.468Z,100231.95
2018-03-24T12:31:10.372Z,100235.38
2018-03-24T12:33:36.276Z,100235.47
2018-03-24T12:36:02.139Z,100241.63
2018-03-24T12:38:28.006Z,100240.49
2018-03-24T12:40:53.905Z,100242.36
2018-03-24T12:43:19.753Z,100230.16
2018-03-24T12:45:45.593Z,100237.55
2018-03-24T12:48:11.520Z,100239.31
2018-03-24T12:50:37.365Z,100243.62
2018-03-24T12:53:03.205Z,100243.14
2018-03-24T12:55:29.106Z,100231.53
2018-03-24T12:57:54.959Z,100228.87
2018-03-24T13:00:20.805Z,100236.23
2018-03-24T13:02:46.689Z,100230.36
2018-03-24T13:05:12.541Z,100236.27
2018-03-24T13:07:38.388Z,100232.80
2018-03-24T13:10:04.285Z,100237.71
2018-03-24T13:12:30.202Z,100236.34
2018-03-24T13:14:56.061Z,100245.98
2018-03-24T13:17:22.017Z,100245.89
2018-03-24T13:19:47.885Z,100253.05
2018-03-24T13:22:13.746Z,100252.41
2018-03-24T13:24:39.643Z,100247.37
2018-03-24T13:27:05.500Z,100243.80
2018-03-24T13:29:31.349Z,100241.98
2018-03-24T13:31:57.233Z,100246.00
2018-03-24T13:34:23.089Z,100242.33
2018-03-24T13:36:48.938Z,100237.45
2018-03-24T13:39:14.823Z,100247.64
2018-03-24T13:41:40.686Z,100241.39
2018-03-24T13:44:06.549Z,100242.58
2018-03-24T13:46:32.440Z,100237.12
2018-03-24T13:48:58.306Z,100247.06
2018-03-24T13:51:24.167Z,100238.74
2018-03-24T13:53:50.055Z,100250.27
2018-03-24T13:56:15.964Z,100243.39
2018-03-24T13:58:41.836Z,100241.56
2018-03-24T14:01:07.746Z,100242.86
2018-03-24T14:03:33.623Z,100243.78
2018-03-24T14:05:59.486Z,100249.28
2018-03-24T14:08:25.414Z,100245.18
2018-03-24T14:10:51.267Z,100241.31
2018-03-24T14:13:17.117Z,100234.58
2018-03-24T14:15:43.012Z,100238.19
2018-03-24T14:18:08.939Z,100234.41
2018-03-24T14:20:34.784Z,100220.03
2018-03-24T14:23:00.682Z,100223.66
2018-03-24T14:25:26.537Z,100213.18
2018-03-24T14:27:52.394Z,100224.00
2018-03-24T14:30:18.283Z,100219.76
2018-03-24T14:32:44.137Z,100221.23
2018-03-24T14:35:09.990Z,100223.26
2018-03-24T14:37:35.893Z,100212.93
2018-03-24T14:40:01.794Z,100218.61
2018-03-24T14:42:27.656Z,100215.69
2018-03-24T14:44:53.549Z,100211.63
2018-03-24T14:47:19.397Z,100219.54
2018-03-24T14:49:45.266Z,100217.55
2018-03-24T14:52:11.160Z,100217.72
2018-03-24T14:54:37.003Z,100218.22
2018-03-24T14:57:02.865Z,100213.48
2018-03-24T14:59:28.774Z,100213.02
2018-03-24T15:01:54.637Z,100207.98
2018-03-24T15:04:20.493Z,100212.72
2018-03-24T15:06:46.408Z,100205.15
2018-03-24T15:09:12.256Z,100209.11
2018-03-24T15:11:38.160Z,100199.69
2018-03-24T15:14:04.101Z,100202.11
2018-03-24T15:16:29.961Z,100202.16
2018-03-24T15:18:55.965Z,100201.34
2018-03-24T15:21:21.894Z,100194.64
2018-03-24T15:23:47.764Z,100198.05
2018-03-24T15:26:13.625Z,100204.71
2018-03-24T15:28:51.970Z,100206.89
2018-03-24T15:31:30.294Z,100197.68
2018-03-24T15:34:08.560Z,100197.00
2018-03-24T15:36:40.495Z,100199.57
2018-03-24T15:39:06.374Z,100196.55
2018-03-24T15:41:32.269Z,100193.33
2018-03-24T15:43:58.222Z,100198.00
2018-03-24T15:46:24.101Z,100201.16
2018-03-24T15:48:50.010Z,100199.73
2018-03-24T15:51:15.890Z,100203.77
2018-03-24T15:53:41.781Z,100212.66
2018-03-24T15:56:07.730Z,100202.47
2018-03-24T15:58:33.577Z,100210.42
2018-03-24T16:00:59.527Z,100207.73
2018-03-24T16:03:25.429Z,100208.31
2018-03-24T16:05:51.319Z,100206.70
2018-03-24T16:08:17.235Z,100209.45
2018-03-24T16:10:43.177Z,100202.45
2018-03-24T16:13:09.059Z,100212.91
2018-03-24T16:15:34.949Z,100204.98
2018-03-24T16:18:00.871Z,100202.34
2018-03-24T16:20:26.882Z,100208.29
2018-03-24T16:22:52.747Z,100204.43
2018-03-24T16:25:18.669Z,100208.80
2018-03-24T16:27:44.524Z,100211.83
2018-03-24T16:30:10.384Z,100209.30
2018-03-24T16:32:36.302Z,100214.56
2018-03-24T16:35:02.199Z,100212.61
2018-03-24T16:37:28.122Z,100216.47
2018-03-24T16:39:54.095Z,100219.20
2018-03-24T16:42:19.998Z,100219.28
2018-03-24T16:44:45.875Z,100220.22
2018-03-24T16:47:11.794Z,100221.29
2018-03-24T16:49:37.861Z,100227.52
2018-03-24T16:52:03.770Z,100232.89
2018-03-24T16:54:29.695Z,100234.77
2018-03-24T16:56:55.573Z,100238.82
2018-03-24T16:59:21.508Z,100225.45
2018-03-24T17:01:47.406Z,100229.11
2018-03-24T17:04:13.253Z,100227.94
2018-03-24T17:06:39.106Z,100218.09
2018-03-24T17:09:05.009Z,100229.94
2018-03-24T17:11:30.868Z,100231.77
2018-03-24T17:13:56.733Z,100237.56
2018-03-24T17:16:22.625Z,100242.90
2018-03-24T17:18:48.521Z,100243.42
2018-03-24T17:21:14.485Z,100251.34
2018-03-24T17:23:40.430Z,100245.77
2018-03-24T17:26:06.378Z,100242.82
2018-03-24T17:28:32.250Z,100242.44
2018-03-24T17:30:58.136Z,100240.75
2018-03-24T17:33:24.010Z,100236.48
2018-03-24T17:35:49.875Z,100239.98
2018-03-24T17:38:15.797Z,100247.85
2018-03-24T17:40:41.652Z,100255.20
2018-03-24T17:43:07.512Z,100256.12
2018-03-24T17:45:33.429Z,100260.04
2018-03-24T17:47:59.280Z,100254.84
2018-03-24T17:50:25.158Z,100260.92
2018-03-24T17:52:51.098Z,100250.97
2018-03-24T17:55:16.961Z,100255.30
2018-03-24T17:57:42.825Z,100257.03
2018-03-24T18:00:08.775Z,100261.36
2018-03-24T18:02:34.624Z,100262.20
2018-03-24T18:05:00.468Z,100272.58
2018-03-24T18:07:26.358Z,100263.48
2018-03-24T18:09:52.226Z,100274.30
2018-03-24T18:12:18.085Z,100269.09
2018-03-24T18:14:44.003Z,100269.94
2018-03-24T18:17:09.867Z,100267.33
2018-03-24T18:19:35.792Z,100264.30
2018-03-24T18:22:01.781Z,100278.98
2018-03-24T18:24:27.643Z,100272.44
2018-03-24T18:26:53.500Z,100281.09
2018-03-24T18:29:19.409Z,100281.06
2018-03-24T18:31:45.279Z,100285.38
2018-03-24T18:34:11.228Z,100293.57
2018-03-24T18:36:37.137Z,100299.56
2018-03-24T18:39:03.026Z,100295.25
2018-03-24T18:41:28.868Z,100301.70
2018-03-24T18:43:55.135Z,100300.81
2018-03-24T18:46:21.121Z,100301.19
2018-03-24T18:48:46.985Z,100301.61
2018-03-24T18:51:12.930Z,100299.00
2018-03-24T18:53:38.810Z,100298.11
2018-03-24T18:56:04.687Z,100295.92
2018-03-24T18:58:30.695Z,100298.48
2018-03-24T19:00:56.565Z,100301.95
2018-03-24T19:03:22.523Z,100297.61
2018-03-24T19:05:48.514Z,100293.69
2018-03-24T19:08:14.506Z,100299.73
2018-03-24T19:10:40.447Z,100304.05
2018-03-24T19:13:06.471Z,100307.91
2018-03-24T19:15:32.305Z,100300.55
2018-03-24T19:17:58.155Z,100302.69
2018-03-24T19:20:24.062Z,100303.98
2018-03-24T19:22:50.068Z,100296.22
2018-03-24T19:25:15.973Z,100302.25
2018-03-24T19:27:41.900Z,100305.28
2018-03-24T19:30:07.756Z,100298.74
2018-03-24T19:32:33.633Z,100291.38
2018-03-24T19:34:59.637Z,100301.31
2018-03-24T19:37:25.515Z,100298.66
2018-03-24T19:39:51.747Z,100299.09
2018-03-24T19:42:17.653Z,100296.50
2018-03-24T19:44:43.609Z,100306.44
2018-03-24T19:47:09.552Z,100307.68
2018-03-24T19:49:35.484Z,100295.14
2018-03-24T19:52:01.636Z,100306.36
2018-03-24T19:54:27.506Z,100307.60
2018-03-24T19:56:53.453Z,100307.16
2018-03-24T19:59:19.410Z,100302.80
2018-03-24T20:01:45.270Z,100304.13
2018-03-24T20:04:11.225Z,100311.44
2018-03-24T20:06:37.070Z,100310.12
2018-03-24T20:09:03.269Z,100304.03
2018-03-24T20:11:29.243Z,100304.42
2018-03-24T20:13:55.089Z,100307.87
2018-03-24T20:16:20.948Z,100309.13
2018-03-24T20:18:46.841Z,100315.16
2018-03-24T20:21:12.890Z,100314.27
2018-03-24T20:23:38.846Z,100315.10
2018-03-24T20:26:04.776Z,100308.20
2018-03-24T20:28:30.641Z,100308.59
2018-03-24T20:30:56.506Z,100299.94
2018-03-24T20:33:22.667Z,100302.05
2018-03-24T20:35:48.649Z,100299.47
2018-03-24T20:38:14.513Z,100305.02
2018-03-24T20:40:40.412Z,100301.12
2018-03-24T20:43:06.281Z,100297.66
2018-03-24T20:45:32.128Z,100313.58
2018-03-24T20:47:58.217Z,100306.20
2018-03-24T20:50:24.085Z,100308.29
2018-03-24T20:52:49.946Z,100309.53
2018-03-24T20:55:15.838Z,100304.31
2018-03-24T20:57:41.795Z,100320.25
2018-03-24T21:00:07.875Z,100315.47
2018-03-24T21:02:33.789Z,100321.52
2018-03-24T21:04:59.685Z,100320.67
2018-03-24T21:07:25.537Z,100320.21
2018-03-24T21:09:51.437Z,100320.20
2018-03-24T21:12:18.373Z,100324.45
2018-03-24T21:14:44.285Z,100326.23
2018-03-24T21:17:10.197Z,100325.28
2018-03-24T21:19:36.124Z,100322.63
2018-03-24T21:22:01.990Z,100325.19
2018-03-24T21:24:27.998Z,100326.03
2018-03-24T21:26:53.926Z,100329.47
2018-03-24T21:29:19.753Z,100339.83
2018-03-24T21:31:45.662Z,100336.39
2018-03-24T21:34:11.535Z,100346.27
2018-03-24T21:36:37.484Z,100338.51
2018-03-24T21:39:03.401Z,100334.60
2018-03-24T21:41:29.261Z,100335.38
2018-03-24T21:43:55.134Z,100339.70
2018-03-24T21:46:21.195Z,100338.81
2018-03-24T21:48:47.174Z,100331.50
2018-03-24T21:51:13.051Z,100328.87
2018-03-24T21:53:38.972Z,100331.44
2018-03-24T21:56:04.841Z,100323.23
2018-03-24T21:58:30.689Z,100322.75
2018-03-24T22:00:56.668Z,100329.14
2018-03-24T22:03:22.552Z,100326.08
2018-03-24T22:05:48.409Z,100334.20
2018-03-24T22:08:14.306Z,100338.03
2018-03-24T22:10:40.165Z,100335.01
2018-03-24T22:13:06.111Z,100329.44
2018-03-24T22:15:32.156Z,100334.26
2018-03-24T22:17:58.030Z,100335.93
2018-03-24T22:20:23.922Z,100329.45
2018-03-24T22:22:49.863Z,100341.90
2018-03-24T22:25:15.837Z,100336.71
2018-03-24T22:27:41.707Z,100333.20
2018-03-24T22:30:07.602Z,100337.56
2018-03-24T22:32:33.469Z,100326.34
2018-03-24T22:34:59.320Z,100322.98
2018-03-24T22:37:25.318Z,100321.25
2018-03-24T22:39:51.191Z,100319.50
2018-03-24T22:42:17.060Z,100321.56
2018-03-24T22:44:42.958Z,100314.23
2018-03-24T22:47:08.813Z,100322.83
2018-03-24T22:49:34.752Z,100321.97
2018-03-24T22:52:00.663Z,100317.16
2018-03-24T22:54:26.507Z,100321.86
2018-03-24T22:56:52.365Z,100316.25
2018-03-24T22:59:18.278Z,100306.68
2018-03-24T23:01:44.220Z,100318.29
2018-03-24T23:04:10.077Z,100314.47
2018-03-24T23:06:35.997Z,100316.25
2018-03-24T23:09:01.886Z,100311.95
2018-03-24T23:11:27.740Z,100315.24
2018-03-24T23:13:53.738Z,100314.43
2018-03-24T23:16:19.622Z,100306.66
2018-03-24T23:18:45.595Z,100304.48
2018-03-24T23:21:11.490Z,100310.08
2018-03-24T23:23:37.337Z,100315.27
2018-03-24T23:26:03.292Z,100319.97
2018-03-24T23:28:29.205Z,100316.02
2018-03-24T23:30:55.173Z,100313.97
2018-03-24T23:33:21.027Z,100317.95
2018-03-24T23:35:46.936Z,100317.03
2018-03-24T23:38:12.865Z,100315.27
2018-03-24T23:40:38.752Z,100317.11
2018-03-24T23:43:04.665Z,100317.04
2018-03-24T23:45:30.556Z,100309.75
2018-03-24T23:47:56.413Z,100304.45
2018-03-24T23:50:22.397Z,100312.61
2018-03-24T23:52:48.252Z,100300.88
2018-03-24T23:55:14.096Z,100297.87
2018-03-24T23:57:40.017Z,100295.72
